Time;durP1;ratioP1;P1;durP2;ratioP2;P2;SDS_P1;SDS_P2;PMS_P1;PMS_P2;Temp;Humidity;BMP_temperature;BMP_pressure;BME280_temperature;BME280_humidity;BME280_pressure;Samples;Min_cycle;Max_cycle;Signal;HPM_P1;HPM_P2
2023/08/27 00:00:22;;;;;;;4.53;2.20;;;;;;;16.82;84.03;100512.41;5012563;28;20037;-62
2023/08/27 00:02:47;;;;;;;2.50;1.60;;;;;;;16.80;83.80;100511.63;5009905;28;20041;-61
2023/08/27 00:05:13;;;;;;;2.28;1.60;;;;;;;16.77;84.36;100509.94;5010042;28;20100;-61
2023/08/27 00:07:38;;;;;;;3.15;1.75;;;;;;;16.74;84.26;100504.81;5008413;28;20053;-61
2023/08/27 00:10:04;;;;;;;3.47;1.77;;;;;;;16.75;85.07;100500.44;5011077;28;20034;-64
2023/08/27 00:12:30;;;;;;;3.67;1.90;;;;;;;16.75;85.15;100493.47;5010193;28;20100;-61
2023/08/27 00:14:55;;;;;;;3.95;2.20;;;;;;;16.77;85.28;100488.22;5011989;28;20049;-61
2023/08/27 00:17:21;;;;;;;2.65;1.80;;;;;;;16.76;85.56;100476.06;5008726;28;20044;-60
2023/08/27 00:19:47;;;;;;;2.83;1.80;;;;;;;16.74;86.12;100465.66;5007336;28;20120;-61
2023/08/27 00:22:12;;;;;;;3.28;2.50;;;;;;;16.79;85.79;100447.25;4994649;28;20502;-60
2023/08/27 00:24:38;;;;;;;6.22;2.00;;;;;;;16.80;85.84;100441.97;5009134;28;20533;-60
2023/08/27 00:27:04;;;;;;;5.70;2.50;;;;;;;16.78;85.99;100448.16;5013512;28;20108;-61
2023/08/27 00:29:29;;;;;;;6.28;2.20;;;;;;;16.74;86.00;100447.38;5009767;28;20063;-61
2023/08/27 00:31:55;;;;;;;2.40;1.60;;;;;;;16.71;85.94;100450.09;5011004;28;20490;-61
2023/08/27 00:34:21;;;;;;;2.53;1.88;;;;;;;16.66;86.48;100428.56;5009639;28;20588;-61
2023/08/27 00:36:46;;;;;;;3.20;1.95;;;;;;;16.62;86.64;100424.38;5010398;28;20034;-61
2023/08/27 00:39:12;;;;;;;3.40;1.85;;;;;;;16.59;86.85;100429.69;5010607;28;20084;-61
2023/08/27 00:41:37;;;;;;;4.70;2.00;;;;;;;16.52;86.90;100419.56;5013440;28;20069;-60
2023/08/27 00:44:03;;;;;;;5.57;1.95;;;;;;;16.44;88.24;100421.63;5010170;28;20041;-61
2023/08/27 00:46:29;;;;;;;4.20;2.53;;;;;;;16.38;88.67;100427.94;5009089;28;20065;-61
2023/08/27 00:48:54;;;;;;;3.00;2.17;;;;;;;16.27;89.37;100425.69;5007924;28;20066;-60
2023/08/27 00:51:19;;;;;;;2.92;1.92;;;;;;;16.19;89.81;100426.88;5009688;28;20092;-61
2023/08/27 00:53:45;;;;;;;3.65;2.15;;;;;;;16.16;90.24;100434.81;5010977;28;20041;-60
2023/08/27 00:56:10;;;;;;;3.78;2.00;;;;;;;16.10;90.33;100435.03;5007804;28;20041;-61
2023/08/27 00:58:36;;;;;;;3.30;1.83;;;;;;;16.05;90.58;100436.97;5008773;28;20103;-61
2023/08/27 01:01:04;;;;;;;3.92;2.15;;;;;;;16.03;90.74;100449.19;5006784;28;20056;-61
2023/08/27 01:03:30;;;;;;;4.32;1.95;;;;;;;16.01;90.72;100462.31;5006996;28;20158;-61
2023/08/27 01:05:56;;;;;;;4.75;1.98;;;;;;;15.96;91.10;100459.03;5005744;28;20117;-61
2023/08/27 01:08:32;;;;;;;4.75;2.50;;;;;;;15.89;92.59;100454.06;5010288;28;20050;-60
2023/08/27 01:11:16;;;;;;;5.68;2.40;;;;;;;15.82;93.24;100450.81;5005805;28;20042;-61
2023/08/27 01:13:57;;;;;;;4.03;2.55;;;;;;;15.76;93.76;100445.84;5008337;28;20034;-61
2023/08/27 01:16:23;;;;;;;2.75;2.47;;;;;;;15.75;93.65;100438.91;5005723;28;20099;-61
2023/08/27 01:18:51;;;;;;;3.78;2.58;;;;;;;15.79;93.10;100439.66;5006152;28;20037;-63
2023/08/27 01:21:22;;;;;;;3.75;2.60;;;;;;;15.79;93.54;100457.91;5009682;28;20743;-61
2023/08/27 01:23:47;;;;;;;4.30;2.40;;;;;;;15.76;93.25;100469.28;5006720;28;20033;-61
2023/08/27 01:26:45;;;;;;;4.13;2.47;;;;;;;15.74;93.69;100460.66;5005539;28;20041;-61
2023/08/27 01:29:39;;;;;;;4.55;2.40;;;;;;;15.70;93.37;100459.06;5006239;28;20052;-60
2023/08/27 01:32:16;;;;;;;6.15;2.78;;;;;;;15.67;94.02;100459.19;5004618;28;20124;-61
2023/08/27 01:34:43;;;;;;;3.00;2.55;;;;;;;15.61;94.07;100460.19;5006224;28;20033;-60
2023/08/27 01:37:12;;;;;;;5.55;2.50;;;;;;;15.59;94.78;100451.56;5003746;28;21893;-61
2023/08/27 01:39:38;;;;;;;5.30;2.42;;;;;;;15.57;94.84;100456.00;5006826;28;20057;-61
2023/08/27 01:42:04;;;;;;;4.15;2.97;;;;;;;15.56;94.78;100456.03;5006537;28;20144;-61
2023/08/27 01:44:29;;;;;;;4.43;2.42;;;;;;;15.55;95.28;100441.31;5004121;28;20167;-61
2023/08/27 01:46:55;;;;;;;7.05;2.80;;;;;;;15.53;95.78;100425.72;5006263;28;20076;-61
2023/08/27 01:49:20;;;;;;;3.70;2.10;;;;;;;15.51;96.13;100432.75;5004929;28;20128;-61
2023/08/27 01:51:46;;;;;;;4.22;2.50;;;;;;;15.50;96.77;100436.25;5003221;28;20061;-61
2023/08/27 01:54:11;;;;;;;5.57;2.60;;;;;;;15.46;97.15;100434.66;5005111;28;20087;-61
2023/08/27 01:56:36;;;;;;;9.18;2.88;;;;;;;15.42;97.45;100433.06;5005664;28;20034;-61
2023/08/27 01:59:02;;;;;;;4.53;2.45;;;;;;;15.40;97.34;100421.84;5006830;28;20030;-60
2023/08/27 02:01:27;;;;;;;3.08;2.30;;;;;;;15.37;97.45;100403.72;5005678;28;20099;-61
2023/08/27 02:03:53;;;;;;;5.55;3.15;;;;;;;15.39;97.58;100420.13;5005697;28;20046;-60
2023/08/27 02:06:18;;;;;;;5.65;2.83;;;;;;;15.41;97.11;100423.53;5009605;28;20038;-61
2023/08/27 02:08:43;;;;;;;5.15;2.42;;;;;;;15.42;97.14;100427.00;5006724;28;20153;-61
2023/08/27 02:11:09;;;;;;;4.15;2.13;;;;;;;15.42;97.80;100424.38;5007141;28;20085;-61
2023/08/27 02:13:34;;;;;;;4.60;2.75;;;;;;;15.43;97.12;100423.50;5010634;28;20049;-61
2023/08/27 02:16:00;;;;;;;3.72;2.03;;;;;;;15.41;97.59;100427.88;5006077;28;20067;-61
2023/08/27 02:18:25;;;;;;;2.67;2.15;;;;;;;15.40;98.02;100419.25;5020475;28;20030;-61
2023/08/27 02:20:51;;;;;;;4.85;2.50;;;;;;;15.38;98.07;100410.59;5008916;28;20044;-60
2023/08/27 02:23:16;;;;;;;5.25;2.60;;;;;;;15.34;98.60;100398.63;5012188;28;20040;-61
2023/08/27 02:25:42;;;;;;;3.22;2.38;;;;;;;15.32;98.28;100389.97;5009444;28;20080;-60
2023/08/27 02:28:08;;;;;;;5.97;1.95;;;;;;;15.34;98.35;100398.63;5008337;28;20069;-61
2023/08/27 02:30:33;;;;;;;2.30;1.90;;;;;;;15.34;97.30;100400.38;5010114;28;20033;-61
2023/08/27 02:32:58;;;;;;;3.88;2.35;;;;;;;15.35;97.93;100402.03;5007804;28;20071;-61
2023/08/27 02:35:24;;;;;;;2.83;2.00;;;;;;;15.34;97.44;100397.75;5007872;28;20120;-61
2023/08/27 02:37:49;;;;;;;8.98;2.60;;;;;;;15.32;97.70;100407.34;5008193;28;20052;-61
2023/08/27 02:40:16;;;;;;;5.38;1.90;;;;;;;15.30;97.29;100406.56;5008383;28;20502;-61
2023/08/27 02:42:42;;;;;;;4.22;2.20;;;;;;;15.26;97.48;100395.41;5009176;28;20042;-60
2023/08/27 02:45:08;;;;;;;2.78;2.28;;;;;;;15.25;97.48;100398.06;5008741;28;20033;-61
2023/08/27 02:47:33;;;;;;;6.72;2.67;;;;;;;15.25;97.42;100400.66;5004409;28;20041;-61
2023/08/27 02:49:59;;;;;;;4.63;2.08;;;;;;;15.22;97.54;100396.41;5007829;28;20038;-61
2023/08/27 02:52:24;;;;;;;5.50;2.58;;;;;;;15.21;97.28;100389.50;5005908;28;20046;-61
2023/08/27 02:54:49;;;;;;;4.25;1.95;;;;;;;15.22;97.03;100388.59;5007544;28;20425;-61
2023/08/27 02:57:15;;;;;;;3.65;2.38;;;;;;;15.21;96.63;100374.72;5007286;28;20026;-60
2023/08/27 02:59:40;;;;;;;3.40;2.40;;;;;;;15.18;96.62;100371.38;5011062;28;20050;-61
2023/08/27 03:02:05;;;;;;;2.63;1.70;;;;;;;15.14;96.97;100373.22;5006932;28;20047;-61
2023/08/27 03:04:31;;;;;;;3.00;1.90;;;;;;;15.11;96.84;100373.31;5005856;28;20048;-61
2023/08/27 03:06:56;;;;;;;6.10;2.20;;;;;;;15.08;96.85;100378.63;5003308;28;20041;-61
2023/08/27 03:09:22;;;;;;;2.78;2.10;;;;;;;15.07;97.21;100378.69;5005733;28;20538;-61
2023/08/27 03:11:47;;;;;;;4.75;2.08;;;;;;;15.05;97.08;100385.69;5003905;28;20054;-61
2023/08/27 03:14:13;;;;;;;2.95;2.20;;;;;;;15.03;97.32;100388.34;5004763;28;20046;-61
2023/08/27 03:16:38;;;;;;;3.33;2.08;;;;;;;15.03;97.06;100390.09;5000291;28;20046;-61
2023/08/27 03:19:04;;;;;;;2.25;1.70;;;;;;;15.07;96.95;100389.09;5005058;28;20046;-62
2023/08/27 03:21:29;;;;;;;4.93;2.85;;;;;;;15.09;96.88;100388.16;5002286;28;20030;-63
2023/08/27 03:23:55;;;;;;;2.80;1.85;;;;;;;15.08;96.49;100388.19;5003658;28;20060;-61
2023/08/27 03:26:20;;;;;;;3.08;2.05;;;;;;;15.07;96.16;100382.16;5003360;28;20096;-61
2023/08/27 03:28:46;;;;;;;3.55;1.75;;;;;;;15.09;96.00;100375.13;5003252;28;20124;-61
2023/08/27 03:31:11;;;;;;;3.55;1.90;;;;;;;15.12;95.85;100369.81;5006749;28;20095;-61
2023/08/27 03:33:37;;;;;;;3.05;1.60;;;;;;;15.16;95.55;100378.41;5004061;28;20040;-61
2023/08/27 03:36:03;;;;;;;2.60;1.65;;;;;;;15.19;95.56;100367.88;5003765;28;20030;-60
2023/08/27 03:38:28;;;;;;;2.53;1.38;;;;;;;15.22;94.83;100367.78;5005086;28;20038;-61
2023/08/27 03:40:54;;;;;;;1.90;1.40;;;;;;;15.24;94.13;100373.78;5006047;28;20924;-61
2023/08/27 03:43:19;;;;;;;1.63;1.30;;;;;;;15.25;93.98;100375.47;5003438;28;20056;-61
2023/08/27 03:45:45;;;;;;;2.67;1.23;;;;;;;15.29;93.87;100369.25;5003782;28;20065;-61
2023/08/27 03:48:10;;;;;;;3.30;1.60;;;;;;;15.34;93.95;100361.28;5003266;28;20149;-61
2023/08/27 03:50:36;;;;;;;2.10;1.60;;;;;;;15.41;92.89;100366.22;5006156;28;20883;-61
2023/08/27 03:53:05;;;;;;;3.63;1.80;;;;;;;15.49;92.85;100363.38;5003460;28;20458;-61
2023/08/27 03:55:36;;;;;;;2.65;1.67;;;;;;;15.53;92.47;100358.00;4999207;28;20048;-61
2023/08/27 03:58:02;;;;;;;4.47;1.80;;;;;;;15.57;92.25;100357.00;5000131;28;20049;-61
2023/08/27 04:00:27;;;;;;;2.85;1.70;;;;;;;15.60;91.64;100359.50;5002824;28;20057;-62
2023/08/27 04:02:53;;;;;;;3.88;1.40;;;;;;;15.67;92.16;100370.59;5007841;28;20034;-61
2023/08/27 04:05:18;;;;;;;4.38;1.55;;;;;;;15.71;91.57;100364.34;5004655;28;20034;-61
2023/08/27 04:07:43;;;;;;;5.70;1.95;;;;;;;15.75;91.56;100363.34;5003037;28;20168;-61
2023/08/27 04:10:09;;;;;;;3.28;1.25;;;;;;;15.81;90.74;100362.25;5003588;28;20038;-61
2023/08/27 04:12:34;;;;;;;3.55;1.70;;;;;;;15.85;90.66;100366.47;5005150;28;20037;-61
2023/08/27 04:15:00;;;;;;;3.17;1.60;;;;;;;15.90;89.81;100362.78;5008337;28;20037;-61
2023/08/27 04:17:25;;;;;;;2.40;1.50;;;;;;;16.00;88.37;100361.53;5005174;28;20045;-61
2023/08/27 04:19:55;;;;;;;3.33;1.60;;;;;;;16.09;87.50;100361.19;5009674;28;20045;-61
2023/08/27 04:22:21;;;;;;;4.80;1.80;;;;;;;16.14;87.19;100351.47;5008747;28;20056;-60
2023/08/27 04:24:46;;;;;;;2.08;1.40;;;;;;;16.16;86.70;100347.03;5007544;28;20041;-61
2023/08/27 04:27:12;;;;;;;2.92;1.70;;;;;;;16.15;86.77;100349.66;5008117;28;20388;-61
2023/08/27 04:29:37;;;;;;;3.05;1.20;;;;;;;16.13;86.84;100359.31;5006829;28;20045;-61
2023/08/27 04:32:03;;;;;;;2.50;1.40;;;;;;;16.09;87.23;100358.56;5006849;28;20041;-61
2023/08/27 04:34:28;;;;;;;2.33;1.45;;;;;;;16.08;87.36;100363.88;5004426;28;20037;-61
2023/08/27 04:36:56;;;;;;;1.50;1.27;;;;;;;16.06;87.80;100358.69;5004802;28;20495;-61
2023/08/27 04:39:21;;;;;;;2.17;1.30;;;;;;;16.04;87.82;100363.13;5006154;28;20045;-62
2023/08/27 04:41:47;;;;;;;4.18;1.25;;;;;;;16.00;88.10;100374.56;5006966;28;20030;-61
2023/08/27 04:44:12;;;;;;;1.98;1.23;;;;;;;15.98;88.33;100363.34;5005578;28;20698;-61
2023/08/27 04:46:38;;;;;;;1.98;1.30;;;;;;;15.98;88.82;100380.75;5003762;28;20545;-61
2023/08/27 04:49:03;;;;;;;4.32;1.10;;;;;;;16.00;88.78;100374.56;5006300;28;20053;-61
2023/08/27 04:51:29;;;;;;;2.50;1.40;;;;;;;16.04;88.32;100383.97;5006340;28;20045;-62
2023/08/27 04:53:54;;;;;;;2.92;1.58;;;;;;;16.05;88.13;100372.66;5008020;28;20040;-61
2023/08/27 04:56:20;;;;;;;2.78;1.38;;;;;;;16.07;87.63;100380.41;5006997;28;20065;-61
2023/08/27 04:58:45;;;;;;;2.10;1.40;;;;;;;16.10;87.86;100375.06;5005062;28;20037;-61
2023/08/27 05:01:11;;;;;;;2.63;1.30;;;;;;;16.10;88.30;100370.72;5004340;28;20433;-61
2023/08/27 05:03:36;;;;;;;3.78;1.40;;;;;;;16.10;87.55;100375.94;5001216;28;20529;-63
2023/08/27 05:06:01;;;;;;;2.55;1.10;;;;;;;16.11;87.74;100382.00;5008082;28;20505;-61
2023/08/27 05:08:27;;;;;;;1.80;1.00;;;;;;;16.12;86.80;100361.06;5009208;28;20518;-61
2023/08/27 05:10:52;;;;;;;2.00;1.00;;;;;;;16.16;86.54;100364.41;5006455;28;20052;-61
2023/08/27 05:13:19;;;;;;;1.52;1.08;;;;;;;16.21;86.65;100362.47;5008465;28;20045;-61
2023/08/27 05:15:45;;;;;;;2.30;1.00;;;;;;;16.27;86.64;100365.72;5008065;28;20038;-61
2023/08/27 05:18:10;;;;;;;2.78;1.20;;;;;;;16.34;86.52;100353.28;5006878;28;20545;-61
2023/08/27 05:20:39;;;;;;;2.03;1.05;;;;;;;16.41;86.12;100357.38;5007777;28;20046;-61
2023/08/27 05:23:04;;;;;;;1.85;1.15;;;;;;;16.49;85.51;100357.06;5008016;28;20053;-63
2023/08/27 05:25:30;;;;;;;2.92;1.40;;;;;;;16.59;85.19;100364.47;5006019;28;20041;-63
2023/08/27 05:27:55;;;;;;;3.15;1.35;;;;;;;16.70;85.23;100364.06;5004987;28;20045;-63
2023/08/27 05:30:20;;;;;;;2.13;1.10;;;;;;;16.80;84.98;100360.22;5007313;28;20029;-63
2023/08/27 05:32:46;;;;;;;1.50;1.08;;;;;;;16.89;83.98;100359.81;5005759;28;20550;-63
2023/08/27 05:35:11;;;;;;;1.55;1.00;;;;;;;16.98;83.85;100362.06;5008539;28;20061;-61
2023/08/27 05:37:37;;;;;;;1.15;0.90;;;;;;;17.00;83.71;100368.09;5008244;28;20148;-61
2023/08/27 05:40:06;;;;;;;2.58;1.30;;;;;;;16.90;83.64;100365.88;5008625;28;20042;-66
2023/08/27 05:42:32;;;;;;;5.60;1.33;;;;;;;16.72;85.00;100376.13;5006957;28;20044;-66
2023/08/27 05:44:58;;;;;;;2.85;1.33;;;;;;;16.57;87.12;100379.34;5007294;28;20062;-67
2023/08/27 05:47:23;;;;;;;2.13;1.17;;;;;;;16.40;88.68;100384.38;5007465;28;21021;-68
2023/08/27 05:49:49;;;;;;;4.57;1.35;;;;;;;16.28;90.67;100390.03;5007508;28;20816;-68
2023/08/27 05:52:14;;;;;;;2.88;1.30;;;;;;;16.17;91.67;100381.78;5009878;28;20128;-70
2023/08/27 05:54:40;;;;;;;2.75;1.48;;;;;;;16.10;92.45;100375.06;5010168;28;20065;-68
2023/08/27 05:57:05;;;;;;;7.75;1.65;;;;;;;16.02;92.28;100375.38;5008417;28;20038;-67
2023/08/27 05:59:30;;;;;;;2.35;1.30;;;;;;;16.00;93.04;100363.31;5009674;28;20608;-67
2023/08/27 06:01:57;;;;;;;2.35;1.40;;;;;;;16.01;94.13;100362.38;5007960;28;20121;-68
2023/08/27 06:04:24;;;;;;;2.55;1.65;;;;;;;16.04;95.71;100373.56;5005166;28;20041;-67
2023/08/27 06:06:49;;;;;;;2.92;1.67;;;;;;;16.10;96.87;100367.25;5005499;28;20038;-67
2023/08/27 06:09:15;;;;;;;2.72;1.42;;;;;;;16.16;97.29;100380.06;5006203;28;20095;-67
2023/08/27 06:11:41;;;;;;;2.47;1.65;;;;;;;16.18;97.46;100383.47;5006501;28;20046;-67
2023/08/27 06:14:06;;;;;;;2.10;1.60;;;;;;;16.21;97.44;100384.19;5007004;28;20087;-67
2023/08/27 06:16:31;;;;;;;2.80;1.83;;;;;;;16.27;97.35;100383.97;5006378;28;20164;-66
2023/08/27 06:18:57;;;;;;;3.08;1.50;;;;;;;16.40;97.73;100386.13;5008363;28;20068;-67
2023/08/27 06:21:23;;;;;;;2.70;1.35;;;;;;;16.51;96.57;100386.53;5008172;28;20917;-66
2023/08/27 06:23:48;;;;;;;1.67;1.40;;;;;;;16.56;96.21;100382.84;5011150;28;20033;-66
2023/08/27 06:26:13;;;;;;;2.38;1.48;;;;;;;16.65;96.71;100377.28;5011984;28;20507;-67
2023/08/27 06:28:39;;;;;;;2.15;1.48;;;;;;;16.63;95.08;100386.94;5013317;28;20402;-68
2023/08/27 06:31:04;;;;;;;4.50;1.60;;;;;;;16.65;96.08;100392.09;5013403;28;20056;-68
2023/08/27 06:33:30;;;;;;;2.88;1.48;;;;;;;16.75;96.42;100398.66;5010578;28;20505;-66
2023/08/27 06:35:55;;;;;;;2.70;1.67;;;;;;;16.87;95.93;100400.81;5009598;28;20589;-66
2023/08/27 06:38:20;;;;;;;4.65;1.73;;;;;;;17.05;96.24;100409.66;5006015;28;20636;-67
2023/08/27 06:40:46;;;;;;;4.25;1.90;;;;;;;17.12;95.44;100411.13;5010531;28;20868;-67
2023/08/27 06:43:11;;;;;;;4.70;1.40;;;;;;;17.17;93.92;100406.56;5006056;28;20064;-66
2023/08/27 06:45:36;;;;;;;2.72;1.63;;;;;;;17.26;93.35;100408.78;5005289;28;20044;-66
2023/08/27 06:48:02;;;;;;;2.45;1.52;;;;;;;17.28;93.37;100417.41;5003337;28;20091;-62
2023/08/27 06:50:28;;;;;;;1.90;1.42;;;;;;;17.25;92.83;100412.31;5001275;28;20619;-62
2023/08/27 06:52:53;;;;;;;2.08;1.45;;;;;;;17.26;93.08;100421.84;5005289;28;20726;-62
2023/08/27 06:55:18;;;;;;;1.88;1.58;;;;;;;17.28;93.44;100414.78;5008466;28;20030;-63
2023/08/27 06:57:44;;;;;;;2.78;1.63;;;;;;;17.34;92.83;100406.69;5007107;28;20659;-63
2023/08/27 07:00:10;;;;;;;2.60;1.75;;;;;;;17.39;92.73;100416.03;5006784;28;20033;-62
2023/08/27 07:02:35;;;;;;;3.03;1.52;;;;;;;17.51;91.99;100425.16;5004034;28;20640;-62
2023/08/27 07:05:01;;;;;;;3.83;1.50;;;;;;;17.54;91.14;100419.81;5005154;28;20178;-62
2023/08/27 07:07:26;;;;;;;2.75;1.30;;;;;;;17.51;90.77;100425.16;5003774;28;20048;-62
2023/08/27 07:09:52;;;;;;;8.65;1.63;;;;;;;17.53;90.58;100410.25;5004958;28;20044;-62
2023/08/27 07:12:18;;;;;;;3.60;1.15;;;;;;;17.51;89.75;100403.41;5008517;28;20032;-63
2023/08/27 07:14:44;;;;;;;2.88;1.17;;;;;;;17.46;89.21;100408.81;5009566;28;20033;-62
2023/08/27 07:17:10;;;;;;;1.83;1.30;;;;;;;17.40;88.84;100396.84;5008164;28;20597;-63
2023/08/27 07:19:35;;;;;;;1.70;1.15;;;;;;;17.34;88.65;100407.56;5005759;28;20921;-63
2023/08/27 07:22:01;;;;;;;2.42;1.40;;;;;;;17.31;88.91;100401.59;5006602;28;20041;-63
2023/08/27 07:24:26;;;;;;;2.05;0.93;;;;;;;17.34;88.65;100404.94;5006325;28;20127;-62
2023/08/27 07:26:52;;;;;;;1.42;1.10;;;;;;;17.47;88.14;100407.03;5002327;28;20036;-63
2023/08/27 07:29:17;;;;;;;1.65;0.95;;;;;;;17.67;87.81;100410.50;5006658;28;20530;-62
2023/08/27 07:31:42;;;;;;;3.40;1.10;;;;;;;17.86;85.91;100405.38;5001927;28;20037;-63
2023/08/27 07:34:08;;;;;;;6.55;1.73;;;;;;;18.06;84.97;100404.47;5005992;28;20141;-62
2023/08/27 07:36:33;;;;;;;1.30;1.08;;;;;;;18.27;85.40;100411.38;5002655;28;20037;-63
2023/08/27 07:38:58;;;;;;;2.15;1.15;;;;;;;18.43;84.98;100407.97;5006165;28;20029;-63
2023/08/27 07:41:24;;;;;;;1.98;1.17;;;;;;;18.55;81.73;100400.47;5006696;28;20652;-63
2023/08/27 07:43:49;;;;;;;1.42;0.93;;;;;;;18.61;78.15;100382.69;5001127;28;20037;-63
2023/08/27 07:46:15;;;;;;;1.10;1.00;;;;;;;18.69;77.25;100387.59;5009776;28;20517;-63
2023/08/27 07:48:40;;;;;;;1.92;1.13;;;;;;;18.82;77.18;100386.91;5007868;28;20049;-63
2023/08/27 07:51:06;;;;;;;0.93;0.75;;;;;;;18.76;72.95;100334.84;5012691;28;20052;-63
2023/08/27 07:53:31;;;;;;;2.00;0.80;;;;;;;18.89;74.20;100371.78;5011020;28;20042;-63
2023/08/27 07:55:57;;;;;;;2.40;1.25;;;;;;;18.95;72.58;100351.41;5008440;28;20041;-63
2023/08/27 07:58:22;;;;;;;2.00;1.00;;;;;;;19.11;73.57;100375.06;5007093;28;20818;-63
2023/08/27 08:00:48;;;;;;;1.83;1.05;;;;;;;19.21;73.01;100367.56;5010085;28;20122;-63
2023/08/27 08:03:13;;;;;;;2.25;1.00;;;;;;;19.26;72.97;100355.13;5007054;28;20681;-64
2023/08/27 08:05:39;;;;;;;1.77;0.95;;;;;;;19.25;71.95;100350.78;5005405;28;20500;-63
2023/08/27 08:08:05;;;;;;;4.72;1.00;;;;;;;19.23;73.08;100374.47;5006371;28;20590;-63
2023/08/27 08:10:30;;;;;;;1.88;1.20;;;;;;;19.34;73.34;100377.38;5009469;28;20139;-63
2023/08/27 08:12:55;;;;;;;1.73;1.00;;;;;;;19.29;72.19;100374.16;5012003;28;20518;-63
2023/08/27 08:15:21;;;;;;;2.67;1.08;;;;;;;19.44;72.50;100370.72;5008165;28;20065;-63
2023/08/27 08:17:46;;;;;;;1.88;0.80;;;;;;;19.59;72.21;100377.00;5002466;28;20049;-63
2023/08/27 08:20:13;;;;;;;4.95;1.00;;;;;;;19.62;71.75;100375.03;5014174;28;20876;-63
2023/08/27 08:22:39;;;;;;;3.30;1.05;;;;;;;19.68;71.99;100379.13;5012852;28;20107;-64
2023/08/27 08:25:06;;;;;;;1.52;0.90;;;;;;;19.68;70.67;100368.63;5005376;28;20048;-64
2023/08/27 08:27:32;;;;;;;2.45;1.10;;;;;;;19.74;70.72;100377.97;5009980;28;20164;-63
2023/08/27 08:29:57;;;;;;;2.78;0.90;;;;;;;19.71;70.95;100384.19;5015124;28;20048;-63
2023/08/27 08:32:22;;;;;;;1.00;0.80;;;;;;;19.84;71.18;100395.78;5007825;28;20085;-63
2023/08/27 08:34:48;;;;;;;5.03;1.02;;;;;;;19.79;70.54;100389.94;5005694;28;20076;-63
2023/08/27 08:37:13;;;;;;;1.60;1.17;;;;;;;19.99;70.87;100408.09;5009599;28;20045;-63
2023/08/27 08:39:40;;;;;;;2.70;1.23;;;;;;;20.05;69.72;100386.78;5006441;28;20036;-64
2023/08/27 08:42:17;;;;;;;1.30;0.88;;;;;;;20.11;70.96;100412.72;5008627;28;20037;-64
2023/08/27 08:44:50;;;;;;;2.25;1.10;;;;;;;20.05;72.07;100418.28;5006167;28;20052;-63
2023/08/27 08:47:18;;;;;;;3.80;1.00;;;;;;;20.11;72.25;100411.84;5009768;28;20045;-64
2023/08/27 08:49:45;;;;;;;1.77;1.00;;;;;;;20.11;72.37;100409.25;5010523;28;20410;-64
2023/08/27 08:52:16;;;;;;;1.38;0.90;;;;;;;20.12;72.71;100411.78;5005291;28;20037;-64
2023/08/27 08:54:43;;;;;;;2.40;1.30;;;;;;;20.07;71.15;100402.44;5003670;28;20077;-63
2023/08/27 08:57:13;;;;;;;2.17;1.15;;;;;;;19.99;71.21;100405.50;5001485;28;20026;-63
2023/08/27 08:59:40;;;;;;;1.63;0.98;;;;;;;20.02;71.14;100402.69;5009745;28;20041;-64
2023/08/27 09:02:10;;;;;;;1.77;1.00;;;;;;;20.01;70.70;100397.53;5004819;28;20039;-64
2023/08/27 09:04:36;;;;;;;2.83;1.00;;;;;;;20.02;70.32;100394.84;5009003;28;20124;-64
2023/08/27 09:07:03;;;;;;;2.15;1.02;;;;;;;20.09;70.92;100393.59;5008919;28;20048;-64
2023/08/27 09:09:31;;;;;;;3.15;1.08;;;;;;;20.12;72.33;100416.19;5011443;28;20034;-63
2023/08/27 09:11:59;;;;;;;2.15;1.00;;;;;;;20.16;70.62;100386.22;5015128;28;20065;-63
2023/08/27 09:14:25;;;;;;;2.20;0.90;;;;;;;20.28;71.13;100392.56;5007214;28;20864;-63
2023/08/27 09:16:51;;;;;;;3.35;1.17;;;;;;;20.31;70.17;100380.13;5003729;28;20038;-63
2023/08/27 09:19:16;;;;;;;2.05;0.95;;;;;;;20.19;70.02;100380.81;5006203;28;20169;-63
2023/08/27 09:21:43;;;;;;;3.15;1.08;;;;;;;20.26;70.17;100366.44;5011300;28;20041;-64
2023/08/27 09:24:09;;;;;;;1.70;0.95;;;;;;;20.36;71.16;100377.28;5015517;28;20029;-66
2023/08/27 09:26:34;;;;;;;1.25;0.98;;;;;;;20.42;71.79;100382.19;5010074;28;20046;-66
2023/08/27 09:29:01;;;;;;;1.80;1.00;;;;;;;20.39;71.12;100364.84;5017199;28;20066;-66
2023/08/27 09:31:40;;;;;;;1.38;1.10;;;;;;;20.30;70.44;100364.50;5017826;28;20029;-66
2023/08/27 09:34:06;;;;;;;1.98;0.88;;;;;;;20.32;71.23;100375.75;5020996;28;20057;-61
2023/08/27 09:36:33;;;;;;;1.65;0.77;;;;;;;20.46;71.26;100375.81;5011524;28;20033;-61
2023/08/27 09:39:10;;;;;;;1.40;0.77;;;;;;;20.60;71.33;100373.31;5010993;28;20022;-61
2023/08/27 09:41:40;;;;;;;1.42;0.70;;;;;;;20.63;71.10;100381.84;5010543;28;20046;-63
2023/08/27 09:44:07;;;;;;;2.45;1.02;;;;;;;20.69;70.91;100370.16;5013828;28;20041;-61
2023/08/27 09:46:33;;;;;;;1.40;0.88;;;;;;;20.66;69.25;100339.63;5012646;28;20116;-66
2023/08/27 09:49:07;;;;;;;1.52;1.05;;;;;;;20.70;71.24;100354.34;5009569;28;20151;-63
2023/08/27 09:51:34;;;;;;;3.33;1.10;;;;;;;20.69;70.61;100349.16;5000988;28;20120;-61
2023/08/27 09:54:00;;;;;;;2.33;1.42;;;;;;;20.63;68.99;100331.94;5006198;28;20021;-61
2023/08/27 09:56:27;;;;;;;1.50;0.80;;;;;;;20.45;68.22;100327.72;5005409;28;20033;-60
2023/08/27 09:58:54;;;;;;;3.08;1.10;;;;;;;20.26;68.61;100336.69;5002404;28;20072;-61
2023/08/27 10:01:21;;;;;;;1.58;0.90;;;;;;;20.32;69.38;100346.88;5002964;28;20041;-61
2023/08/27 10:03:47;;;;;;;1.77;0.98;;;;;;;20.41;69.39;100341.97;5002990;28;20045;-62
2023/08/27 10:06:13;;;;;;;2.55;1.33;;;;;;;20.39;68.80;100332.47;4997823;28;20052;-61
2023/08/27 10:08:46;;;;;;;2.58;0.80;;;;;;;20.39;69.26;100338.59;5003750;28;20117;-61
2023/08/27 10:11:14;;;;;;;3.38;1.25;;;;;;;20.32;69.22;100331.97;5000652;28;20502;-61
2023/08/27 10:13:41;;;;;;;1.45;0.90;;;;;;;20.43;69.75;100341.88;5002752;28;20042;-62
2023/08/27 10:16:07;;;;;;;2.05;0.98;;;;;;;20.54;69.82;100334.25;5000030;28;20041;-61
2023/08/27 10:18:33;;;;;;;2.13;1.30;;;;;;;20.82;68.83;100323.91;5000396;28;20025;-61
2023/08/27 10:21:00;;;;;;;2.22;0.90;;;;;;;21.12;67.60;100300.25;5007869;28;20040;-61
2023/08/27 10:23:29;;;;;;;4.88;1.05;;;;;;;21.18;67.27;100299.88;5014269;28;20045;-61
2023/08/27 10:25:57;;;;;;;1.60;0.80;;;;;;;21.26;67.89;100311.63;5013902;28;20042;-61
2023/08/27 10:28:23;;;;;;;2.13;0.80;;;;;;;21.17;66.64;100292.94;5002917;28;20041;-61
2023/08/27 10:30:50;;;;;;;2.45;0.93;;;;;;;21.33;66.95;100303.38;5012646;28;20394;-61
2023/08/27 10:33:17;;;;;;;2.05;1.02;;;;;;;21.53;65.38;100284.59;5008399;28;20025;-61
2023/08/27 10:35:44;;;;;;;2.83;1.00;;;;;;;21.82;64.13;100267.91;5013728;28;20037;-61
2023/08/27 10:38:11;;;;;;;1.40;0.80;;;;;;;21.86;63.11;100244.88;5005664;28;20641;-61
2023/08/27 10:40:37;;;;;;;0.98;0.73;;;;;;;22.05;63.26;100256.81;5021808;28;20036;-61
2023/08/27 10:43:08;;;;;;;2.20;0.90;;;;;;;22.40;60.74;100216.84;5010200;28;20167;-61
2023/08/27 10:45:38;;;;;;;2.25;0.82;;;;;;;22.52;59.21;100187.91;5011006;28;20048;-61
2023/08/27 10:48:22;;;;;;;1.77;0.95;;;;;;;22.84;56.88;100157.59;5010847;28;20025;-61
2023/08/27 10:50:49;;;;;;;2.83;0.70;;;;;;;23.00;54.75;100133.66;5014666;28;20536;-61
2023/08/27 10:53:16;;;;;;;1.20;0.70;;;;;;;23.12;54.66;100142.50;5008589;28;20052;-61
2023/08/27 10:55:48;;;;;;;2.13;1.05;;;;;;;23.07;52.67;100123.50;5010457;28;20041;-61
2023/08/27 10:58:15;;;;;;;1.83;0.70;;;;;;;22.53;51.82;100100.03;5013502;28;20851;-61
2023/08/27 11:00:57;;;;;;;3.15;1.30;;;;;;;22.57;51.50;100112.03;5010155;28;20040;-60
2023/08/27 11:03:22;;;;;;;1.08;0.60;;;;;;;22.59;51.96;100122.50;5012534;28;20036;-61
2023/08/27 11:06:11;;;;;;;1.48;0.70;;;;;;;22.76;51.37;100109.84;5004954;28;20600;-61
2023/08/27 11:08:36;;;;;;;1.38;0.93;;;;;;;22.90;51.43;100103.63;5002106;28;20041;-61
2023/08/27 11:11:14;;;;;;;1.50;0.70;;;;;;;23.16;52.35;100115.81;5014989;28;20041;-61
2023/08/27 11:13:44;;;;;;;0.65;0.55;;;;;;;23.47;51.01;100108.38;5002210;28;20570;-61
2023/08/27 11:16:15;;;;;;;0.95;0.70;;;;;;;23.37;51.75;100114.31;5026385;28;20048;-61
2023/08/27 11:18:58;;;;;;;1.13;0.70;;;;;;;23.07;50.98;100097.16;5016421;28;20038;-61
2023/08/27 11:21:24;;;;;;;2.05;0.80;;;;;;;22.97;51.24;100106.66;5006533;28;20076;-61